Time;durP1;ratioP1;P1;durP2;ratioP2;P2;SDS_P1;SDS_P2;PMS_P1;PMS_P2;Temp;Humidity;BMP_temperature;BMP_pressure;BME280_temperature;BME280_humidity;BME280_pressure;Samples;Min_cycle;Max_cycle;Signal;HPM_P1;HPM_P2
2021/03/15 00:00:12;;;;;;;1.42;0.50;;;23.50;29.20;;;;;;5025264;28;20045;-58
2021/03/15 00:02:39;;;;;;;1.85;0.63;;;23.50;29.20;;;;;;5033202;28;20037;-58
2021/03/15 00:05:07;;;;;;;0.65;0.40;;;23.40;29.20;;;;;;5016242;28;20095;-56
2021/03/15 00:07:33;;;;;;;1.80;0.60;;;23.40;29.20;;;;;;5017862;28;20064;-58
2021/03/15 00:09:59;;;;;;;1.08;0.50;;;23.40;29.20;;;;;;5035807;28;20425;-57
2021/03/15 00:12:25;;;;;;;1.63;0.50;;;23.40;29.30;;;;;;5016317;28;20061;-53
2021/03/15 00:14:51;;;;;;;1.27;0.60;;;23.40;29.30;;;;;;5035938;28;20044;-55
2021/03/15 00:17:17;;;;;;;0.63;0.40;;;23.40;29.30;;;;;;5024598;28;20029;-55
2021/03/15 00:19:43;;;;;;;0.93;0.50;;;23.40;29.30;;;;;;5034123;28;20466;-55
2021/03/15 00:22:09;;;;;;;1.20;0.50;;;23.40;29.40;;;;;;5021703;28;20103;-54
2021/03/15 00:24:35;;;;;;;1.17;0.50;;;23.30;29.40;;;;;;5032451;28;20043;-58
2021/03/15 00:27:00;;;;;;;1.13;0.45;;;23.30;29.40;;;;;;5028446;28;20439;-56
2021/03/15 00:29:26;;;;;;;1.13;0.50;;;23.30;29.40;;;;;;5031615;28;20041;-57
2021/03/15 00:31:52;;;;;;;1.80;0.43;;;23.30;29.50;;;;;;5030666;28;20433;-58
2021/03/15 00:34:18;;;;;;;1.52;0.65;;;23.30;29.50;;;;;;5029568;28;20052;-56
2021/03/15 00:36:44;;;;;;;1.13;0.50;;;23.40;29.60;;;;;;5030814;28;20072;-53
2021/03/15 00:39:12;;;;;;;1.35;0.50;;;23.30;29.60;;;;;;5021124;28;20073;-56
2021/03/15 00:41:38;;;;;;;1.70;0.60;;;23.30;29.60;;;;;;5018664;28;20034;-54
2021/03/15 00:44:05;;;;;;;2.47;0.60;;;23.30;29.60;;;;;;5027653;28;20448;-56
2021/03/15 00:46:34;;;;;;;1.35;0.38;;;23.30;29.60;;;;;;5020314;28;20041;-54
2021/03/15 00:49:00;;;;;;;0.98;0.30;;;23.30;29.60;;;;;;5024481;28;20033;-58
2021/03/15 00:51:26;;;;;;;0.90;0.50;;;23.30;29.60;;;;;;5035214;28;20049;-58
2021/03/15 00:53:52;;;;;;;1.15;0.35;;;23.30;29.70;;;;;;5024996;28;20434;-59
2021/03/15 00:56:18;;;;;;;1.98;0.77;;;23.30;29.60;;;;;;5013869;28;20048;-52
2021/03/15 00:58:44;;;;;;;2.10;0.60;;;23.20;29.60;;;;;;5016015;28;20026;-56
2021/03/15 01:01:17;;;;;;;0.93;0.45;;;23.20;29.60;;;;;;5014385;28;20057;-56
2021/03/15 01:03:48;;;;;;;0.85;0.38;;;23.20;29.60;;;;;;5014310;28;20068;-56
2021/03/15 01:06:14;;;;;;;0.88;0.43;;;23.20;29.60;;;;;;5015250;28;20062;-53
2021/03/15 01:08:52;;;;;;;1.42;0.70;;;23.20;29.70;;;;;;5020433;28;20084;-59
2021/03/15 01:11:26;;;;;;;1.00;0.50;;;23.20;29.70;;;;;;5028663;28;20048;-57
2021/03/15 01:13:59;;;;;;;0.28;0.22;;;23.20;29.70;;;;;;5026187;28;20449;-56
2021/03/15 01:16:45;;;;;;;0.77;0.50;;;23.20;29.70;;;;;;5023213;28;20124;-55
2021/03/15 01:19:12;;;;;;;0.70;0.43;;;23.10;29.70;;;;;;5014202;28;20026;-57
2021/03/15 01:21:37;;;;;;;1.63;0.63;;;23.10;29.70;;;;;;5016443;28;20025;-59
2021/03/15 01:24:03;;;;;;;1.27;0.60;;;23.10;29.70;;;;;;5029150;28;20452;-56
2021/03/15 01:26:29;;;;;;;0.80;0.30;;;23.10;29.70;;;;;;5031756;28;20037;-55
2021/03/15 01:28:55;;;;;;;0.80;0.40;;;23.10;29.80;;;;;;5015760;28;20038;-57
2021/03/15 01:31:21;;;;;;;1.08;0.50;;;23.10;29.80;;;;;;5015102;28;20030;-54
2021/03/15 01:33:46;;;;;;;1.35;0.65;;;23.10;29.80;;;;;;5033953;28;20390;-56
2021/03/15 01:36:12;;;;;;;0.55;0.30;;;23.10;29.80;;;;;;5034594;28;20049;-56
2021/03/15 01:38:38;;;;;;;0.70;0.30;;;23.10;29.80;;;;;;5029525;28;20073;-59
2021/03/15 01:41:04;;;;;;;0.70;0.40;;;23.10;29.80;;;;;;5032125;28;20037;-58
2021/03/15 01:43:30;;;;;;;0.90;0.30;;;23.10;29.80;;;;;;5017284;28;20040;-54
2021/03/15 01:45:55;;;;;;;1.15;0.40;;;23.10;29.80;;;;;;5013679;28;20057;-56
2021/03/15 01:48:21;;;;;;;1.60;0.40;;;23.10;29.80;;;;;;5019941;28;20362;-55
2021/03/15 01:50:49;;;;;;;1.25;0.40;;;23.10;29.80;;;;;;5022153;28;20034;-58
2021/03/15 01:53:17;;;;;;;1.23;0.40;;;23.10;29.80;;;;;;5029016;28;20029;-53
2021/03/15 01:55:44;;;;;;;0.57;0.22;;;23.10;29.80;;;;;;5023175;28;20050;-50
2021/03/15 01:58:12;;;;;;;1.20;0.30;;;23.00;29.80;;;;;;5024277;28;20096;-50
2021/03/15 02:00:38;;;;;;;0.60;0.30;;;23.00;29.80;;;;;;5018735;28;20033;-48
2021/03/15 02:03:05;;;;;;;1.13;0.20;;;23.00;29.80;;;;;;5033898;28;20057;-50
2021/03/15 02:05:34;;;;;;;0.70;0.30;;;23.00;29.80;;;;;;5031586;28;20026;-49
2021/03/15 02:08:00;;;;;;;1.45;0.40;;;23.00;29.80;;;;;;5016461;28;20508;-48
2021/03/15 02:10:26;;;;;;;0.68;0.20;;;23.00;29.90;;;;;;5016132;28;20053;-56
2021/03/15 02:13:13;;;;;;;1.33;0.47;;;23.00;29.90;;;;;;5022423;28;20372;-58
2021/03/15 02:16:00;;;;;;;1.95;0.30;;;23.00;29.90;;;;;;5015066;28;20133;-59
2021/03/15 02:19:04;;;;;;;1.42;0.30;;;23.00;29.90;;;;;;5014738;28;20042;-55
2021/03/15 02:22:00;;;;;;;0.70;0.30;;;23.00;29.90;;;;;;5018654;28;20030;-55
2021/03/15 02:24:50;;;;;;;0.85;0.20;;;23.00;29.90;;;;;;5015228;28;20438;-48
2021/03/15 02:27:42;;;;;;;0.90;0.40;;;23.00;30.00;;;;;;5019617;28;20029;-47
2021/03/15 02:30:37;;;;;;;0.80;0.20;;;22.90;30.00;;;;;;5026003;28;20044;-48
2021/03/15 02:33:32;;;;;;;0.85;0.38;;;22.90;30.00;;;;;;5021966;28;20032;-50
2021/03/15 02:35:59;;;;;;;;;;;22.90;30.00;;;;;;5026526;28;20087;-56
2021/03/15 02:38:28;;;;;;;0.38;0.30;;;22.90;30.00;;;;;;5029186;28;19909;-55
2021/03/15 02:40:57;;;;;;;0.38;0.20;;;22.90;30.00;;;;;;5021169;28;20437;-58
2021/03/15 02:43:31;;;;;;;0.45;0.20;;;22.90;30.00;;;;;;5032004;28;20121;-57
2021/03/15 02:46:02;;;;;;;0.47;0.30;;;22.90;30.00;;;;;;5022130;28;20034;-53
2021/03/15 02:48:30;;;;;;;0.88;0.30;;;22.90;30.00;;;;;;5030941;28;20045;-52
2021/03/15 02:50:57;;;;;;;0.10;0.10;;;22.90;30.00;;;;;;5026663;28;20108;-55
2021/03/15 02:53:25;;;;;;;0.43;0.20;;;22.90;30.00;;;;;;5034348;28;20429;-54
2021/03/15 02:55:56;;;;;;;0.28;0.17;;;22.90;30.00;;;;;;5018202;28;20041;-55
2021/03/15 02:58:22;;;;;;;0.80;0.28;;;22.90;30.00;;;;;;5036195;28;20428;-58
2021/03/15 03:00:50;;;;;;;0.30;0.20;;;22.80;30.00;;;;;;5022065;28;20030;-54
2021/03/15 03:03:21;;;;;;;0.68;0.30;;;22.80;30.00;;;;;;5036988;28;20037;-56
2021/03/15 03:05:54;;;;;;;0.57;0.20;;;22.80;30.00;;;;;;5034273;28;20041;-56
2021/03/15 03:08:21;;;;;;;0.40;0.10;;;22.80;30.00;;;;;;5017816;28;20046;-58
2021/03/15 03:10:49;;;;;;;0.57;0.30;;;22.80;30.00;;;;;;5016347;28;20452;-57
2021/03/15 03:13:17;;;;;;;0.20;0.20;;;22.80;30.00;;;;;;5035457;28;20033;-56
2021/03/15 03:15:45;;;;;;;0.40;0.20;;;22.80;30.00;;;;;;5036726;28;20037;-58
2021/03/15 03:18:15;;;;;;;0.35;0.20;;;22.80;30.00;;;;;;5020514;28;20026;-55
2021/03/15 03:20:43;;;;;;;0.10;0.10;;;22.80;30.00;;;;;;5018020;28;20117;-52
2021/03/15 03:23:10;;;;;;;1.17;0.20;;;22.80;30.00;;;;;;5031877;28;20022;-56
2021/03/15 03:25:37;;;;;;;0.75;0.30;;;22.80;30.00;;;;;;5024762;28;20030;-55
2021/03/15 03:28:04;;;;;;;0.17;0.13;;;22.80;30.00;;;;;;5017938;28;20029;-58
2021/03/15 03:30:32;;;;;;;0.15;0.10;;;22.80;30.00;;;;;;5028278;28;20217;-53
2021/03/15 03:33:01;;;;;;;0.25;0.13;;;22.80;30.00;;;;;;5034035;28;20329;-54
2021/03/15 03:35:27;;;;;;;3.90;0.20;;;22.70;30.00;;;;;;5025778;28;20433;-55
2021/03/15 03:37:54;;;;;;;0.50;0.28;;;22.70;30.00;;;;;;5035534;28;20041;-57
2021/03/15 03:40:20;;;;;;;0.47;0.20;;;22.70;30.00;;;;;;5028257;28;20038;-54
2021/03/15 03:42:46;;;;;;;0.40;0.20;;;22.70;30.00;;;;;;5021111;28;20105;-54
2021/03/15 03:45:12;;;;;;;0.30;0.20;;;22.70;30.00;;;;;;5029938;28;20048;-59
2021/03/15 03:47:39;;;;;;;0.77;0.38;;;22.70;30.00;;;;;;5016583;28;20048;-53
2021/03/15 03:50:08;;;;;;;0.20;0.10;;;22.70;30.00;;;;;;5029752;28;20021;-56
2021/03/15 03:52:37;;;;;;;0.43;0.25;;;22.70;30.00;;;;;;5034494;28;20399;-55
2021/03/15 03:55:08;;;;;;;0.75;0.30;;;22.70;30.00;;;;;;5034512;28;20352;-59
2021/03/15 03:57:36;;;;;;;0.13;0.10;;;22.70;30.10;;;;;;5035614;28;20120;-60
2021/03/15 04:00:14;;;;;;;0.13;0.10;;;22.70;30.10;;;;;;5015733;28;20044;-56
2021/03/15 04:02:56;;;;;;;0.75;0.20;;;22.70;30.10;;;;;;5016465;28;20088;-58
2021/03/15 04:05:26;;;;;;;1.08;0.30;;;22.70;30.10;;;;;;5023246;28;20034;-55
2021/03/15 04:08:10;;;;;;;0.32;0.20;;;22.70;30.10;;;;;;5021203;28;20121;-54
2021/03/15 04:10:37;;;;;;;0.73;0.20;;;22.70;30.10;;;;;;5027284;28;20033;-55
2021/03/15 04:13:12;;;;;;;0.60;0.25;;;22.70;30.20;;;;;;5036067;28;20408;-55
2021/03/15 04:15:45;;;;;;;0.20;0.20;;;22.60;30.20;;;;;;5018288;28;20080;-54
2021/03/15 04:18:16;;;;;;;0.47;0.20;;;22.60;30.20;;;;;;5021897;28;20053;-53
2021/03/15 04:20:44;;;;;;;0.40;0.20;;;22.60;30.20;;;;;;5018743;28;20034;-58
2021/03/15 04:23:14;;;;;;;0.38;0.30;;;22.60;30.20;;;;;;5025052;28;20080;-53
2021/03/15 04:25:42;;;;;;;1.50;0.30;;;22.60;30.90;;;;;;5031900;28;20108;-55
2021/03/15 04:28:09;;;;;;;0.30;0.30;;;22.70;30.30;;;;;;5020018;28;20091;-55
2021/03/15 04:30:37;;;;;;;0.93;0.30;;;22.60;30.30;;;;;;5019634;28;20105;-54
2021/03/15 04:33:05;;;;;;;0.75;0.35;;;22.60;30.30;;;;;;5016011;28;20026;-50
2021/03/15 04:35:33;;;;;;;0.50;0.30;;;22.60;30.30;;;;;;5030769;28;20045;-58
2021/03/15 04:38:01;;;;;;;0.65;0.20;;;22.60;30.30;;;;;;5029755;28;20069;-55
2021/03/15 04:40:29;;;;;;;1.55;0.43;;;22.60;30.30;;;;;;5021120;28;20038;-56
2021/03/15 04:42:59;;;;;;;0.70;0.20;;;22.60;30.30;;;;;;5032478;28;20360;-55
2021/03/15 04:45:33;;;;;;;2.00;0.50;;;22.60;31.00;;;;;;5030148;28;20029;-55
2021/03/15 04:48:05;;;;;;;1.10;0.38;;;22.60;30.30;;;;;;5016711;28;20037;-54
2021/03/15 04:50:32;;;;;;;0.40;0.30;;;22.60;30.30;;;;;;5021101;28;20182;-50
2021/03/15 04:53:02;;;;;;;1.00;0.38;;;22.50;30.30;;;;;;5034427;28;20036;-56
2021/03/15 04:55:28;;;;;;;1.25;0.43;;;22.60;30.40;;;;;;5030078;28;20042;-51
2021/03/15 04:57:57;;;;;;;1.42;0.40;;;22.60;30.30;;;;;;5016495;28;20037;-53
2021/03/15 05:00:23;;;;;;;0.75;0.32;;;22.50;30.30;;;;;;5020347;28;20049;-55
2021/03/15 05:02:51;;;;;;;0.95;0.28;;;22.50;30.30;;;;;;5015804;28;20026;-58
2021/03/15 05:05:17;;;;;;;0.88;0.20;;;22.60;30.40;;;;;;5028530;28;20465;-59
2021/03/15 05:07:46;;;;;;;1.00;0.40;;;22.60;30.40;;;;;;5034511;28;20049;-58
2021/03/15 05:10:14;;;;;;;0.95;0.30;;;22.50;30.30;;;;;;5019827;28;20053;-58
2021/03/15 05:12:41;;;;;;;0.73;0.28;;;22.50;30.30;;;;;;5026229;28;20033;-55
2021/03/15 05:15:08;;;;;;;0.70;0.30;;;22.50;30.30;;;;;;5028524;28;20022;-52
2021/03/15 05:17:36;;;;;;;1.38;0.40;;;22.50;30.30;;;;;;5034862;28;20408;-56
2021/03/15 05:20:07;;;;;;;1.35;0.40;;;22.50;30.30;;;;;;5030926;28;20409;-56
2021/03/15 05:22:35;;;;;;;1.52;0.50;;;22.50;30.30;;;;;;5035011;28;20029;-57
2021/03/15 05:25:06;;;;;;;1.15;0.30;;;22.50;30.30;;;;;;5020674;28;20013;-54
2021/03/15 05:27:34;;;;;;;1.02;0.40;;;22.50;30.30;;;;;;5014794;28;20116;-57
2021/03/15 05:30:06;;;;;;;0.77;0.30;;;22.50;30.30;;;;;;5020205;28;20139;-55
2021/03/15 05:32:36;;;;;;;1.35;0.68;;;22.50;30.30;;;;;;5015017;28;20029;-58
2021/03/15 05:35:04;;;;;;;1.40;0.50;;;22.50;30.30;;;;;;5025806;28;20108;-54
2021/03/15 05:37:31;;;;;;;1.02;0.35;;;22.50;30.30;;;;;;5030065;28;20049;-58
2021/03/15 05:39:57;;;;;;;1.17;0.40;;;22.40;30.30;;;;;;5019260;28;20117;-56
2021/03/15 05:42:28;;;;;;;0.88;0.38;;;22.50;30.40;;;;;;5021475;28;20036;-53
2021/03/15 05:45:24;;;;;;;0.70;0.35;;;22.40;30.30;;;;;;5033537;28;20124;-56
2021/03/15 05:48:47;;;;;;;0.90;0.40;;;22.40;30.30;;;;;;5023430;28;20026;-55
2021/03/15 05:51:13;;;;;;;0.70;0.30;;;22.40;30.30;;;;;;4935956;29;20363;-53
2021/03/15 05:54:00;;;;;;;1.58;0.57;;;22.40;30.30;;;;;;4953231;29;20043;-58
2021/03/15 05:56:58;;;;;;;0.85;0.40;;;22.40;30.30;;;;;;5007853;28;20436;-51
2021/03/15 05:59:45;;;;;;;0.88;0.30;;;22.40;30.30;;;;;;5033308;28;20045;-51
2021/03/15 06:02:52;;;;;;;0.52;0.30;;;22.40;30.40;;;;;;5031797;28;20531;-54
2021/03/15 06:05:25;;;;;;;1.17;0.40;;;22.40;30.30;;;;;;5013760;28;20140;-56
2021/03/15 06:08:01;;;;;;;0.73;0.40;;;22.40;30.30;;;;;;5030803;28;20111;-53
2021/03/15 06:10:36;;;;;;;1.02;0.40;;;22.40;30.30;;;;;;5041064;28;20029;-54
2021/03/15 06:13:14;;;;;;;0.75;0.30;;;22.40;30.40;;;;;;5030610;28;20443;-57
2021/03/15 06:15:42;;;;;;;1.50;0.40;;;22.40;30.40;;;;;;5034867;28;20038;-53
2021/03/15 06:18:12;;;;;;;1.75;0.70;;;22.40;30.40;;;;;;5035221;28;20029;-55
2021/03/15 06:20:41;;;;;;;1.15;0.47;;;22.40;30.30;;;;;;5038907;28;20445;-59
2021/03/15 06:23:07;;;;;;;1.60;0.43;;;22.40;30.30;;;;;;5038062;28;20032;-53
2021/03/15 06:25:34;;;;;;;0.80;0.30;;;22.40;30.30;;;;;;5026924;28;20026;-54
2021/03/15 06:28:01;;;;;;;1.58;0.60;;;22.40;30.40;;;;;;5037808;28;20025;-57
2021/03/15 06:30:27;;;;;;;1.25;0.50;;;22.40;30.30;;;;;;5028198;28;20092;-56
2021/03/15 06:32:55;;;;;;;1.48;0.30;;;22.40;30.40;;;;;;5028106;28;20030;-56
2021/03/15 06:35:25;;;;;;;1.38;0.77;;;22.40;30.40;;;;;;5020850;28;20127;-54
2021/03/15 06:37:52;;;;;;;0.85;0.32;;;22.40;30.40;;;;;;5023085;28;20034;-48
2021/03/15 06:40:19;;;;;;;1.02;0.35;;;22.30;30.30;;;;;;5032321;28;20045;-55
2021/03/15 06:42:45;;;;;;;0.65;0.40;;;22.30;30.30;;;;;;5031748;28;20069;-56
2021/03/15 06:45:16;;;;;;;1.30;0.38;;;22.40;30.40;;;;;;5031110;28;20102;-50
2021/03/15 06:47:43;;;;;;;1.80;0.60;;;22.30;30.30;;;;;;5032628;28;20108;-55
2021/03/15 06:50:10;;;;;;;1.58;0.40;;;22.30;30.30;;;;;;5021974;28;20026;-53
2021/03/15 06:52:51;;;;;;;0.95;0.40;;;22.30;30.40;;;;;;5022175;28;20038;-56
2021/03/15 06:55:29;;;;;;;1.25;0.38;;;22.30;30.30;;;;;;5021707;28;20354;-51
2021/03/15 06:57:55;;;;;;;1.33;0.52;;;22.30;30.40;;;;;;5021996;28;20087;-59
2021/03/15 07:00:25;;;;;;;0.60;0.30;;;22.30;30.40;;;;;;5020667;28;20034;-51
2021/03/15 07:02:59;;;;;;;0.95;0.50;;;22.30;30.40;;;;;;5028324;28;20018;-53
2021/03/15 07:05:25;;;;;;;1.33;0.43;;;22.30;30.40;;;;;;5040472;28;20037;-53
2021/03/15 07:07:54;;;;;;;1.23;0.38;;;22.30;30.40;;;;;;5033082;28;20079;-52
2021/03/15 07:10:22;;;;;;;1.10;0.60;;;22.30;31.10;;;;;;5028392;28;20465;-51
2021/03/15 07:12:49;;;;;;;0.68;0.40;;;22.30;30.50;;;;;;5020284;28;20025;-55
2021/03/15 07:15:16;;;;;;;0.88;0.40;;;22.30;30.50;;;;;;5017627;28;20107;-58
2021/03/15 07:17:42;;;;;;;1.92;0.40;;;22.30;30.50;;;;;;5028868;28;20393;-58
2021/03/15 07:20:09;;;;;;;2.10;0.50;;;22.30;31.20;;;;;;5019354;28;20116;-58
2021/03/15 07:22:36;;;;;;;1.35;0.50;;;22.30;30.50;;;;;;5021825;28;20037;-56
2021/03/15 07:25:02;;;;;;;2.20;0.60;;;22.30;30.50;;;;;;5027941;28;20373;-54
2021/03/15 07:27:29;;;;;;;2.10;0.47;;;22.30;30.50;;;;;;5018561;28;20036;-56
2021/03/15 07:29:55;;;;;;;1.75;0.60;;;22.30;30.50;;;;;;5033674;28;20435;-54
2021/03/15 07:32:38;;;;;;;1.45;0.60;;;22.30;30.50;;;;;;5036040;28;20030;-56
2021/03/15 07:35:28;;;;;;;1.73;0.60;;;22.30;30.40;;;;;;5029564;28;20104;-56
2021/03/15 07:37:54;;;;;;;1.83;0.70;;;22.30;30.40;;;;;;5023114;28;20112;-54
2021/03/15 07:40:33;;;;;;;2.08;0.70;;;22.30;30.40;;;;;;5021756;28;20498;-51
2021/03/15 07:43:01;;;;;;;1.98;0.65;;;22.30;30.50;;;;;;5023224;28;20048;-54
2021/03/15 07:45:37;;;;;;;1.70;0.70;;;22.30;30.60;;;;;;5023161;28;20032;-55
2021/03/15 07:48:12;;;;;;;2.88;0.80;;;22.30;30.80;;;;;;5029093;28;20044;-51
2021/03/15 07:50:40;;;;;;;3.13;0.90;;;22.40;30.90;;;;;;5035898;28;20424;-53
2021/03/15 07:53:07;;;;;;;1.35;0.60;;;22.30;30.90;;;;;;5025482;28;20029;-55
2021/03/15 07:55:40;;;;;;;3.03;0.68;;;22.40;30.80;;;;;;5032849;28;20048;-59
2021/03/15 07:58:26;;;;;;;2.78;0.70;;;22.40;30.70;;;;;;5031101;28;20025;-53
2021/03/15 08:00:53;;;;;;;2.22;0.80;;;22.40;30.60;;;;;;5021102;28;20030;-57
2021/03/15 08:03:24;;;;;;;2.50;0.68;;;22.40;30.50;;;;;;5033596;28;20026;-59
2021/03/15 08:05:52;;;;;;;2.53;0.77;;;22.50;30.60;;;;;;5018350;28;20112;-61
2021/03/15 08:08:18;;;;;;;2.13;0.70;;;22.50;30.40;;;;;;5028476;28;20100;-58
2021/03/15 08:10:45;;;;;;;2.33;0.70;;;22.50;30.40;;;;;;5035387;28;20029;-57
2021/03/15 08:13:12;;;;;;;3.28;1.00;;;22.60;30.40;;;;;;5035482;28;20040;-51
2021/03/15 08:15:40;;;;;;;3.22;0.90;;;22.60;30.30;;;;;;5035529;28;20052;-54
2021/03/15 08:18:13;;;;;;;2.03;0.70;;;22.60;30.30;;;;;;5029664;28;20040;-55
2021/03/15 08:20:45;;;;;;;2.95;1.02;;;22.60;30.20;;;;;;5031721;28;20449;-55
2021/03/15 08:23:19;;;;;;;3.05;1.00;;;22.60;30.30;;;;;;5034394;28;20111;-57
2021/03/15 08:25:47;;;;;;;2.55;0.85;;;22.60;30.30;;;;;;5024633;28;20033;-53
2021/03/15 08:28:13;;;;;;;4.10;1.20;;;22.60;30.30;;;;;;5035308;28;20025;-63
2021/03/15 08:30:49;;;;;;;4.60;0.75;;;22.70;30.40;;;;;;5027966;28;20044;-63
2021/03/15 08:33:18;;;;;;;1.80;0.88;;;22.70;30.40;;;;;;5035009;28;20048;-63
2021/03/15 08:35:44;;;;;;;3.03;1.33;;;22.70;30.40;;;;;;5030689;28;20136;-63
2021/03/15 08:38:14;;;;;;;3.15;1.20;;;22.70;30.40;;;;;;5035408;28;20152;-63
2021/03/15 08:40:47;;;;;;;2.25;1.00;;;22.70;30.40;;;;;;5034409;28;20029;-64
2021/03/15 08:43:19;;;;;;;3.38;0.82;;;22.70;30.40;;;;;;5032731;28;20029;-64
2021/03/15 08:45:56;;;;;;;3.58;0.80;;;22.70;30.30;;;;;;5020739;28;20038;-63
2021/03/15 08:48:34;;;;;;;2.25;0.73;;;22.70;30.20;;;;;;5030815;28;20083;-64
2021/03/15 08:51:02;;;;;;;2.90;0.93;;;22.70;30.10;;;;;;5030769;28;20579;-64
2021/03/15 08:53:37;;;;;;;3.65;1.00;;;22.70;30.10;;;;;;5020147;28;20072;-62
2021/03/15 08:56:11;;;;;;;2.53;1.20;;;22.70;30.00;;;;;;5032731;28;20025;-59
2021/03/15 08:58:44;;;;;;;2.97;0.85;;;22.80;30.00;;;;;;5032142;28;20041;-62
2021/03/15 09:01:12;;;;;;;4.00;1.20;;;22.80;29.80;;;;;;5033107;28;20034;-64
2021/03/15 09:03:54;;;;;;;2.05;0.70;;;22.80;29.80;;;;;;5030038;28;20029;-63
2021/03/15 09:06:32;;;;;;;2.25;1.02;;;22.90;29.70;;;;;;5033212;28;20041;-62
2021/03/15 09:09:01;;;;;;;4.07;1.02;;;22.90;29.60;;;;;;5031265;28;20072;-63
2021/03/15 09:11:38;;;;;;;2.60;0.90;;;22.90;29.50;;;;;;5033155;28;20025;-63
2021/03/15 09:14:16;;;;;;;1.52;0.70;;;22.90;29.30;;;;;;5032034;28;20037;-63
2021/03/15 09:16:58;;;;;;;2.80;1.00;;;23.00;29.20;;;;;;5020097;28;20412;-62
2021/03/15 09:19:40;;;;;;;2.65;0.88;;;23.00;29.10;;;;;;5046077;28;20033;-64
2021/03/15 09:22:27;;;;;;;1.30;0.55;;;23.10;29.10;;;;;;5050737;28;20021;-63
2021/03/15 09:24:56;;;;;;;2.80;1.10;;;23.10;28.90;;;;;;5034972;28;20049;-63
2021/03/15 09:27:27;;;;;;;2.60;0.80;;;23.10;28.90;;;;;;5031011;28;20116;-62
2021/03/15 09:30:00;;;;;;;2.15;0.75;;;23.10;28.90;;;;;;5032753;28;20348;-63
2021/03/15 09:32:31;;;;;;;2.73;0.60;;;23.10;28.70;;;;;;5030876;28;20128;-62
2021/03/15 09:35:01;;;;;;;1.23;0.55;;;23.20;28.70;;;;;;5029678;28;20381;-62
2021/03/15 09:37:27;;;;;;;2.08;0.75;;;23.20;28.70;;;;;;5030804;28;20037;-62
2021/03/15 09:39:55;;;;;;;2.30;0.60;;;23.20;28.60;;;;;;5031857;28;20025;-63
2021/03/15 09:42:22;;;;;;;1.45;0.75;;;23.20;28.50;;;;;;5030439;28;20116;-63
2021/03/15 09:44:48;;;;;;;1.98;0.73;;;23.20;28.40;;;;;;5031576;28;20037;-63
2021/03/15 09:47:25;;;;;;;3.45;0.80;;;23.20;28.40;;;;;;5027535;28;20480;-63
2021/03/15 09:49:54;;;;;;;2.45;1.05;;;23.20;28.50;;;;;;5024867;28;20052;-61
2021/03/15 09:52:33;;;;;;;1.33;0.73;;;23.10;28.60;;;;;;5031749;28;20017;-63
2021/03/15 09:55:10;;;;;;;2.40;0.75;;;22.90;28.60;;;;;;5032314;28;20452;-61
2021/03/15 09:57:36;;;;;;;1.65;0.60;;;22.90;28.80;;;;;;5029835;28;20026;-62
2021/03/15 10:00:15;;;;;;;1.88;0.70;;;22.90;28.80;;;;;;5025692;28;20030;-62
2021/03/15 10:02:45;;;;;;;1.42;0.50;;;22.90;28.80;;;;;;5031962;28;20078;-63
2021/03/15 10:05:31;;;;;;;1.85;0.70;;;22.80;28.70;;;;;;5001944;28;20827;-63
2021/03/15 10:08:35;;;;;;;1.58;0.63;;;22.90;28.70;;;;;;5030639;28;20037;-62
2021/03/15 10:11:43;;;;;;;2.70;0.90;;;22.80;28.60;;;;;;4951650;29;20047;-60
2021/03/15 10:14:27;;;;;;;2.13;0.70;;;22.80;28.60;;;;;;4952475;29;20066;-59
2021/03/15 10:17:21;;;;;;;2.45;0.80;;;22.80;28.50;;;;;;5002202;28;20370;-65
2021/03/15 10:19:55;;;;;;;2.00;0.60;;;22.80;28.50;;;;;;5031399;28;20022;-59
2021/03/15 10:22:21;;;;;;;2.45;0.80;;;22.80;28.60;;;;;;4999775;28;20385;-60
2021/03/15 10:24:53;;;;;;;2.55;0.88;;;22.80;28.60;;;;;;5005420;28;20025;-61
2021/03/15 10:27:28;;;;;;;2.63;0.95;;;22.80;28.70;;;;;;5024715;28;20033;-63
2021/03/15 10:29:57;;;;;;;2.03;0.70;;;22.80;28.70;;;;;;5046064;28;20025;-62
2021/03/15 10:32:27;;;;;;;1.88;0.70;;;22.80;28.80;;;;;;5029018;28;20057;-60
2021/03/15 10:35:02;;;;;;;2.58;0.70;;;22.80;28.90;;;;;;5045841;28;20047;-62
2021/03/15 10:37:45;;;;;;;1.52;0.75;;;22.80;29.00;;;;;;5030375;28;20079;-62
2021/03/15 10:40:23;;;;;;;1.33;0.57;;;22.80;29.00;;;;;;5012912;28;20029;-61
2021/03/15 10:42:50;;;;;;;3.00;0.65;;;22.80;29.10;;;;;;5027952;28;20135;-61
2021/03/15 10:45:16;;;;;;;1.48;0.50;;;22.90;29.10;;;;;;5030385;28;20026;-62
2021/03/15 10:47:51;;;;;;;1.98;0.70;;;22.80;29.10;;;;;;5028722;28;20107;-61
2021/03/15 10:50:34;;;;;;;1.30;0.60;;;22.80;29.20;;;;;;5034460;28;20033;-62
2021/03/15 10:53:18;;;;;;;1.20;0.43;;;22.90;29.20;;;;;;5033869;28;20072;-61
2021/03/15 10:55:45;;;;;;;1.05;0.45;;;22.90;29.20;;;;;;5033420;28;20040;-61
2021/03/15 10:58:18;;;;;;;1.23;0.55;;;22.90;29.20;;;;;;5033970;28;20025;-61
2021/03/15 11:01:06;;;;;;;0.95;0.38;;;22.80;29.20;;;;;;5017940;28;20445;-63
2021/03/15 11:03:40;;;;;;;1.92;0.80;;;22.80;29.20;;;;;;5017684;28;20022;-62
2021/03/15 11:06:18;;;;;;;1.30;0.50;;;22.90;29.20;;;;;;5031796;28;20080;-61
2021/03/15 11:09:00;;;;;;;1.00;0.40;;;22.80;29.20;;;;;;5034119;28;20049;-61
2021/03/15 11:11:31;;;;;;;1.05;0.45;;;22.80;29.20;;;;;;5034510;28;20116;-63
2021/03/15 11:14:07;;;;;;;;;;;22.90;29.20;;;;;;5032839;28;22711;-60
2021/03/15 11:16:35;;;;;;;1.30;0.35;;;22.80;29.20;;;;;;5042718;28;19921;-58
2021/03/15 11:19:04;;;;;;;1.27;0.40;;;22.80;29.20;;;;;;5031475;28;20440;-58
2021/03/15 11:21:33;;;;;;;2.15;0.63;;;22.90;29.40;;;;;;5029649;28;20034;-57
2021/03/15 11:24:09;;;;;;;1.30;0.50;;;22.80;29.30;;;;;;5033567;28;20030;-60
2021/03/15 11:27:08;;;;;;;1.58;0.50;;;22.90;29.50;;;;;;4994133;28;20065;-59
2021/03/15 11:29:43;;;;;;;2.60;0.60;;;22.90;29.40;;;;;;5028240;28;20033;-61
2021/03/15 11:32:24;;;;;;;1.15;0.40;;;22.90;29.40;;;;;;5033635;28;20440;-61
2021/03/15 11:34:58;;;;;;;1.27;0.52;;;22.90;29.50;;;;;;5033982;28;20025;-60
2021/03/15 11:37:34;;;;;;;1.38;0.50;;;22.90;29.40;;;;;;5032540;28;20043;-59
2021/03/15 11:40:06;;;;;;;1.23;0.50;;;22.90;29.40;;;;;;5032364;28;20025;-57
2021/03/15 11:42:41;;;;;;;1.17;0.40;;;22.90;29.50;;;;;;5032668;28;20045;-61
2021/03/15 11:45:13;;;;;;;1.58;0.60;;;23.00;29.50;;;;;;5029495;28;20022;-62
2021/03/15 11:47:41;;;;;;;0.85;0.40;;;23.00;29.50;;;;;;5028203;28;20026;-61
2021/03/15 11:50:19;;;;;;;1.42;0.47;;;23.10;29.50;;;;;;5030122;28;20514;-62
2021/03/15 11:52:58;;;;;;;1.02;0.45;;;23.10;29.50;;;;;;5034751;28;20029;-60
2021/03/15 11:55:27;;;;;;;1.15;0.50;;;23.20;29.60;;;;;;5031912;28;20064;-57
2021/03/15 11:57:53;;;;;;;0.68;0.30;;;23.20;29.70;;;;;;5029256;28;20083;-55
2021/03/15 12:00:20;;;;;;;1.30;0.70;;;23.20;29.70;;;;;;5027571;28;20457;-61
2021/03/15 12:02:53;;;;;;;1.67;0.45;;;23.30;29.80;;;;;;5025437;28;20471;-61
2021/03/15 12:05:37;;;;;;;1.83;0.50;;;23.30;29.80;;;;;;5031675;28;20365;-63
2021/03/15 12:08:13;;;;;;;1.05;0.50;;;23.30;29.80;;;;;;5028518;28;20052;-61
2021/03/15 12:10:43;;;;;;;1.65;0.60;;;23.40;29.90;;;;;;5013230;28;20099;-62
2021/03/15 12:13:13;;;;;;;1.73;0.60;;;23.40;29.90;;;;;;5014820;28;20030;-63
2021/03/15 12:15:39;;;;;;;1.83;0.50;;;23.40;29.90;;;;;;5033801;28;20037;-60
2021/03/15 12:18:09;;;;;;;2.33;0.70;;;23.40;29.90;;;;;;5030432;28;20033;-60
2021/03/15 12:20:37;;;;;;;1.27;0.43;;;23.40;29.90;;;;;;5033197;28;20039;-61
2021/03/15 12:23:05;;;;;;;1.25;0.65;;;23.50;30.00;;;;;;5032295;28;20025;-61
2021/03/15 12:25:38;;;;;;;1.83;0.80;;;23.50;30.00;;;;;;5016131;28;20514;-61
2021/03/15 12:28:22;;;;;;;1.67;0.65;;;23.50;29.90;;;;;;5032719;28;20324;-61
2021/03/15 12:30:52;;;;;;;2.60;0.63;;;23.50;29.90;;;;;;5025194;28;20029;-62
2021/03/15 12:33:19;;;;;;;2.67;0.82;;;23.50;29.90;;;;;;5032990;28;20034;-61
2021/03/15 12:35:45;;;;;;;1.23;0.50;;;23.50;29.90;;;;;;5031346;28;20119;-64
2021/03/15 12:38:11;;;;;;;2.00;0.60;;;23.50;29.80;;;;;;5033307;28;20460;-62
2021/03/15 12:40:39;;;;;;;0.85;0.40;;;23.50;29.80;;;;;;5031619;28;20132;-62
2021/03/15 12:43:05;;;;;;;1.23;0.60;;;23.40;29.70;;;;;;5032460;28;20025;-62
2021/03/15 12:45:34;;;;;;;1.30;0.70;;;23.40;29.70;;;;;;5016349;28;20059;-62
2021/03/15 12:48:00;;;;;;;1.48;0.60;;;23.40;29.70;;;;;;5034236;28;20445;-62
2021/03/15 12:50:27;;;;;;;1.88;0.93;;;23.40;29.70;;;;;;5032794;28;20033;-62
2021/03/15 12:52:56;;;;;;;1.10;0.50;;;23.40;29.70;;;;;;5031302;28;20029;-57
2021/03/15 12:55:48;;;;;;;1.27;0.65;;;23.40;29.80;;;;;;5030208;28;20049;-55
2021/03/15 12:58:17;;;;;;;1.90;0.77;;;23.40;29.80;;;;;;5029308;28;20026;-60
2021/03/15 13:00:44;;;;;;;0.80;0.40;;;23.40;29.90;;;;;;5022470;28;20053;-53
2021/03/15 13:03:24;;;;;;;1.00;0.50;;;23.40;30.00;;;;;;5026291;28;20466;-58
2021/03/15 13:05:50;;;;;;;1.35;0.47;;;23.40;30.00;;;;;;5005557;28;20314;-50
2021/03/15 13:08:36;;;;;;;1.38;0.57;;;23.40;30.10;;;;;;5016138;28;20140;-61
2021/03/15 13:11:23;;;;;;;1.92;0.57;;;23.40;30.30;;;;;;5005180;28;20360;-56